Main page
METAR-TAF:

METAR-TAF

Airports :

Scatsta Airport

Scatsta, Shetland, Scotland

latitude: 60-26N, longitude: 001-18W, elevation: 22 m

Current weather observation

The report was made 15 minutes ago, at 04:20 UTC
Wind 12 kt from the South/Southwest
Temperature 11°C
Humidity 87%
Pressure 1000 hPa
Visibility: 1600 m
haze

METAR: EGPM 160420Z AUTO 20012KT 1600 HZ FEW023/// 11/09 Q1000

Time: 05:35 (04:35 UTC)

Forecast

The report was made 11 hours and 32 minutes ago, at 17:03 UTC
Forecast valid from 15 at 18 UTC to 15 at 20 UTC
Wind 9 kt from the South/Southwest
Visibility 10 km or more
Few clouds at a height of 1200 ft
Temporary
from 15 at 18 UTC to 15 at 20 UTC
Visibility: 7000 m
Broken clouds at a height of 1200 ft
rain

TAF: EGPM 151703Z 1518/1520 21009KT 9999 FEW012 TEMPO 1518/1520 7000 RA BKN012

Weather observations and forecasts of more than 4000 airports (METAR and TAF reports).

The available stations are represented by yellow and red dots on the map.

Hover mouse over dot to see the name of the station.

Then click to see weather observations and forecasts.

To change the map : click on the green buttons with a black cross to zoom in, on the green button with a dash to zoom out, or on the green arrows for adjacent maps.


METAR-TAF: